Date,TemperatureHighF,TemperatureAvgF,TemperatureLowF,DewpointHighF,DewpointAvgF,DewpointLowF,HumidityHigh,HumidityAvg,HumidityLow,PressureMaxIn,PressureMinIn,WindSpeedMaxMPH,WindSpeedAvgMPH,GustSpeedMaxMPH,PrecipitationSumIn
2013-2-1,69.2,60.8,51.1,50.8,46.5,40.2,87,61,36,30.16,30.09,0,0,0,0.00
2013-2-2,72.0,63.7,56.5,54.6,48.1,38.1,86,58,30,30.19,30.10,0,0,0,0.00
2013-2-3,71.0,61.9,54.5,54.7,50.5,44.2,98,68,44,30.13,30.00,0,0,0,0.00
2013-2-4,58.5,54.8,52.7,55.0,53.6,52.4,100,96,87,30.10,29.98,0,0,0,0.00
2013-2-5,54.8,53.7,52.7,53.3,51.4,49.5,98,92,86,30.11,30.00,0,0,0,0.00
2013-2-6,58.9,54.4,51.8,52.1,49.7,47.3,92,84,70,30.11,30.01,0,0,0,0.00
2013-2-7,56.6,53.0,48.3,52.2,49.0,43.9,100,87,70,30.14,30.01,0,0,0,0.00
2013-2-8,53.9,49.6,44.4,47.1,42.9,38.7,93,78,64,30.00,29.90,0,0,0,0.24
2013-2-9,55.1,47.6,40.8,45.5,41.2,37.0,94,79,62,30.09,29.94,0,0,0,0.00
2013-2-10,54.6,50.3,44.7,45.1,44.0,42.6,93,79,66,30.10,30.02,0,0,0,0.00
2013-2-11,56.0,51.7,45.7,48.2,45.1,40.9,92,78,67,30.23,30.06,0,0,0,0.00
2013-2-12,58.1,52.3,43.1,48.1,43.1,35.6,88,72,49,30.34,30.23,0,0,0,0.00
2013-2-13,60.2,53.7,45.3,50.7,45.5,40.7,89,74,54,30.26,30.14,0,0,0,0.00
2013-2-14,63.5,55.1,47.8,54.4,49.6,45.8,97,83,58,30.20,30.06,0,0,0,0.00
2013-2-15,78.5,67.7,53.9,41.5,30.3,24.8,59,26,16,30.18,30.11,0,0,0,0.00
2013-2-16,76.7,67.7,61.1,29.8,22.0,15.7,25,18,12,30.14,29.97,0,0,0,0.00
2013-2-17,60.8,54.9,47.8,54.4,50.2,26.5,100,86,28,30.02,29.93,0,0,0,0.00
2013-2-18,57.6,54.2,52.7,50.2,47.7,44.4,87,79,68,30.07,29.96,0,0,0,0.00
2013-2-19,55.9,53.0,51.3,48.5,44.9,42.3,87,74,64,29.99,29.81,0,0,0,0.00
2013-2-20,54.8,52.5,50.8,46.4,38.2,29.7,80,60,42,29.98,29.87,0,0,0,0.00
2013-2-21,57.8,51.9,43.9,47.4,41.8,30.9,89,69,47,30.08,29.98,0,0,0,0.00
2013-2-22,58.2,52.8,45.7,50.4,41.7,32.5,84,67,44,30.20,30.08,0,0,0,0.00
2013-2-23,59.7,53.2,47.0,51.4,47.5,38.8,93,81,63,30.15,29.93,0,0,0,0.00
2013-2-24,65.5,56.2,50.2,50.6,31.5,12.1,98,48,15,30.18,29.99,0,0,0,0.00
2013-2-25,62.1,55.1,47.5,50.3,41.5,26.1,87,62,37,30.21,30.07,0,0,0,0.00
2013-2-26,60.9,54.9,45.3,51.5,46.4,41.9,94,74,55,30.10,29.98,0,0,0,0.00
2013-2-27,69.8,60.9,53.4,44.0,29.9,17.3,58,34,14,30.25,30.10,0,0,0,0.00
2013-2-28,74.8,64.4,53.8,35.3,24.2,14.5,42,23,11,30.30,30.22,0,0,0,0.00